sensor_id;sensor_type;location;lat;lon;timestamp;pressure;altitude;pressure_sealevel;temperature;humidity
12360;BME280;6244;51.460;7.090;2023-03-21T00:03:30;100765.59;;;9.04;71.76
12360;BME280;6244;51.460;7.090;2023-03-21T00:08:27;100761.19;;;9.04;71.39
12360;BME280;6244;51.460;7.090;2023-03-21T00:13:24;100756.78;;;9.06;71.15
12360;BME280;6244;51.460;7.090;2023-03-21T00:18:23;100742.69;;;9.09;70.66
12360;BME280;6244;51.460;7.090;2023-03-21T00:23:21;100740.00;;;9.10;69.93
12360;BME280;6244;51.460;7.090;2023-03-21T00:28:17;100734.56;;;9.15;68.86
12360;BME280;6244;51.460;7.090;2023-03-21T00:33:14;100737.41;;;9.10;68.89
12360;BME280;6244;51.460;7.090;2023-03-21T00:38:14;100725.16;;;9.11;68.51
12360;BME280;6244;51.460;7.090;2023-03-21T00:43:12;100718.16;;;9.11;67.97
12360;BME280;6244;51.460;7.090;2023-03-21T00:48:12;100712.84;;;9.13;67.61
12360;BME280;6244;51.460;7.090;2023-03-21T00:53:08;100710.00;;;9.18;67.83
12360;BME280;6244;51.460;7.090;2023-03-21T00:58:05;100702.03;;;9.21;67.22
12360;BME280;6244;51.460;7.090;2023-03-21T01:03:05;100704.72;;;9.19;67.62
12360;BME280;6244;51.460;7.090;2023-03-21T01:08:02;100713.69;;;9.13;67.80
12360;BME280;6244;51.460;7.090;2023-03-21T01:12:58;100703.28;;;9.12;69.10
12360;BME280;6244;51.460;7.090;2023-03-21T01:17:55;100696.44;;;9.09;69.97
12360;BME280;6244;51.460;7.090;2023-03-21T01:22:53;100695.75;;;9.04;70.22
12360;BME280;6244;51.460;7.090;2023-03-21T01:27:49;100694.13;;;9.02;70.97
12360;BME280;6244;51.460;7.090;2023-03-21T01:32:46;100687.28;;;8.99;71.57
12360;BME280;6244;51.460;7.090;2023-03-21T01:37:43;100695.13;;;8.99;71.62
12360;BME280;6244;51.460;7.090;2023-03-21T01:42:41;100691.59;;;9.00;71.00
12360;BME280;6244;51.460;7.090;2023-03-21T01:47:38;100685.50;;;9.00;71.49
12360;BME280;6244;51.460;7.090;2023-03-21T01:52:36;100689.91;;;8.99;71.90
12360;BME280;6244;51.460;7.090;2023-03-21T01:57:39;100680.34;;;8.98;71.96
12360;BME280;6244;51.460;7.090;2023-03-21T02:02:42;100670.66;;;9.00;72.34
12360;BME280;6244;51.460;7.090;2023-03-21T02:07:46;100663.72;;;8.99;72.03
12360;BME280;6244;51.460;7.090;2023-03-21T02:12:43;100656.94;;;8.95;72.06
12360;BME280;6244;51.460;7.090;2023-03-21T02:17:46;100661.25;;;8.96;71.97
12360;BME280;6244;51.460;7.090;2023-03-21T02:22:55;100656.00;;;8.96;71.97
12360;BME280;6244;51.460;7.090;2023-03-21T02:28:03;100655.94;;;8.98;72.20
12360;BME280;6244;51.460;7.090;2023-03-21T02:33:32;100643.78;;;8.97;72.34
12360;BME280;6244;51.460;7.090;2023-03-21T02:38:38;100643.91;;;8.94;72.32
12360;BME280;6244;51.460;7.090;2023-03-21T02:43:38;100648.31;;;8.93;72.95
12360;BME280;6244;51.460;7.090;2023-03-21T02:48:42;100656.47;;;8.86;74.94
12360;BME280;6244;51.460;7.090;2023-03-21T02:53:46;100649.69;;;8.61;77.48
12360;BME280;6244;51.460;7.090;2023-03-21T02:58:45;100644.47;;;8.61;77.27
12360;BME280;6244;51.460;7.090;2023-03-21T03:03:42;100635.97;;;8.56;77.86
12360;BME280;6244;51.460;7.090;2023-03-21T03:08:44;100622.22;;;8.51;77.90
12360;BME280;6244;51.460;7.090;2023-03-21T03:13:56;100617.72;;;8.54;77.84
12360;BME280;6244;51.460;7.090;2023-03-21T03:18:58;100630.78;;;8.54;78.02
12360;BME280;6244;51.460;7.090;2023-03-21T03:24:00;100622.09;;;8.54;77.76
12360;BME280;6244;51.460;7.090;2023-03-21T03:29:00;100612.16;;;8.62;77.70
12360;BME280;6244;51.460;7.090;2023-03-21T03:34:02;100608.78;;;8.60;77.59
12360;BME280;6244;51.460;7.090;2023-03-21T03:39:05;100594.84;;;8.60;78.02
12360;BME280;6244;51.460;7.090;2023-03-21T03:44:03;100592.94;;;8.63;77.76
12360;BME280;6244;51.460;7.090;2023-03-21T03:49:02;100589.31;;;8.66;77.55
12360;BME280;6244;51.460;7.090;2023-03-21T03:54:05;100591.75;;;8.70;77.02
12360;BME280;6244;51.460;7.090;2023-03-21T03:59:04;100586.72;;;8.66;77.25
12360;BME280;6244;51.460;7.090;2023-03-21T04:04:01;100577.03;;;8.68;77.28
12360;BME280;6244;51.460;7.090;2023-03-21T04:08:58;100576.91;;;8.71;76.51
12360;BME280;6244;51.460;7.090;2023-03-21T04:13:56;100582.16;;;8.71;77.06
12360;BME280;6244;51.460;7.090;2023-03-21T04:18:52;100577.75;;;8.71;76.87
12360;BME280;6244;51.460;7.090;2023-03-21T04:23:49;100575.69;;;8.59;77.07
12360;BME280;6244;51.460;7.090;2023-03-21T04:28:49;100575.94;;;8.53;77.42
12360;BME280;6244;51.460;7.090;2023-03-21T04:33:47;100573.63;;;8.66;76.43
12360;BME280;6244;51.460;7.090;2023-03-21T04:38:44;100568.53;;;8.63;76.63
12360;BME280;6244;51.460;7.090;2023-03-21T04:43:42;100571.16;;;8.63;76.16
12360;BME280;6244;51.460;7.090;2023-03-21T04:48:40;100567.63;;;8.64;75.94
12360;BME280;6244;51.460;7.090;2023-03-21T04:53:37;100562.13;;;8.70;75.60
12360;BME280;6244;51.460;7.090;2023-03-21T04:58:36;100570.75;;;8.72;75.45
12360;BME280;6244;51.460;7.090;2023-03-21T05:03:35;100562.84;;;8.73;75.24
12360;BME280;6244;51.460;7.090;2023-03-21T05:08:34;100561.00;;;8.75;74.84
12360;BME280;6244;51.460;7.090;2023-03-21T05:13:32;100564.31;;;8.79;74.60
12360;BME280;6244;51.460;7.090;2023-03-21T05:18:29;100556.63;;;8.76;74.27
12360;BME280;6244;51.460;7.090;2023-03-21T05:23:29;100560.06;;;8.76;73.99
12360;BME280;6244;51.460;7.090;2023-03-21T05:28:25;100556.97;;;8.87;73.58
12360;BME280;6244;51.460;7.090;2023-03-21T05:33:27;100551.97;;;8.82;73.35
12360;BME280;6244;51.460;7.090;2023-03-21T05:38:24;100553.38;;;8.71;74.47
12360;BME280;6244;51.460;7.090;2023-03-21T05:43:20;100543.94;;;8.67;75.38
12360;BME280;6244;51.460;7.090;2023-03-21T05:48:17;100546.69;;;8.64;75.86
12360;BME280;6244;51.460;7.090;2023-03-21T05:53:15;100540.91;;;8.57;76.24
12360;BME280;6244;51.460;7.090;2023-03-21T05:58:11;100553.25;;;8.53;76.78
12360;BME280;6244;51.460;7.090;2023-03-21T06:03:08;100552.28;;;8.56;76.26
12360;BME280;6244;51.460;7.090;2023-03-21T06:08:05;100545.34;;;8.55;76.20
12360;BME280;6244;51.460;7.090;2023-03-21T06:13:02;100550.72;;;8.52;76.67
12360;BME280;6244;51.460;7.090;2023-03-21T06:17:59;100551.69;;;8.49;77.59
12360;BME280;6244;51.460;7.090;2023-03-21T06:22:55;100551.00;;;8.46;77.73
12360;BME280;6244;51.460;7.090;2023-03-21T06:27:52;100554.31;;;8.49;78.10
12360;BME280;6244;51.460;7.090;2023-03-21T06:32:50;100556.84;;;8.51;78.55
12360;BME280;6244;51.460;7.090;2023-03-21T06:37:47;100557.91;;;8.27;81.00
12360;BME280;6244;51.460;7.090;2023-03-21T06:42:45;100557.25;;;8.21;81.71
12360;BME280;6244;51.460;7.090;2023-03-21T06:47:41;100542.41;;;8.22;81.67
12360;BME280;6244;51.460;7.090;2023-03-21T06:52:39;100548.41;;;8.24;82.24
12360;BME280;6244;51.460;7.090;2023-03-21T06:57:35;100547.28;;;8.30;82.35
12360;BME280;6244;51.460;7.090;2023-03-21T07:02:32;100541.50;;;8.23;83.33
12360;BME280;6244;51.460;7.090;2023-03-21T07:07:28;100545.81;;;8.24;83.44
12360;BME280;6244;51.460;7.090;2023-03-21T07:12:26;100551.19;;;8.21;84.02
12360;BME280;6244;51.460;7.090;2023-03-21T07:17:23;100554.44;;;8.26;84.03
12360;BME280;6244;51.460;7.090;2023-03-21T07:22:19;100570.97;;;8.27;83.64
12360;BME280;6244;51.460;7.090;2023-03-21T07:27:17;100565.44;;;8.34;82.02
12360;BME280;6244;51.460;7.090;2023-03-21T07:32:15;100557.91;;;8.47;80.26
12360;BME280;6244;51.460;7.090;2023-03-21T07:37:11;100558.41;;;8.55;79.76
12360;BME280;6244;51.460;7.090;2023-03-21T07:42:08;100573.91;;;8.60;79.57
12360;BME280;6244;51.460;7.090;2023-03-21T07:47:06;100563.53;;;8.58;79.54
12360;BME280;6244;51.460;7.090;2023-03-21T07:52:04;100562.41;;;8.64;79.55
12360;BME280;6244;51.460;7.090;2023-03-21T07:57:02;100557.53;;;8.75;78.73
12360;BME280;6244;51.460;7.090;2023-03-21T08:01:58;100561.69;;;8.79;78.56
12360;BME280;6244;51.460;7.090;2023-03-21T08:06:55;100555.44;;;8.83;78.05
12360;BME280;6244;51.460;7.090;2023-03-21T08:11:52;100547.22;;;8.91;78.25
12360;BME280;6244;51.460;7.090;2023-03-21T08:16:49;100553.72;;;9.01;77.93
12360;BME280;6244;51.460;7.090;2023-03-21T08:21:46;100548.16;;;9.08;77.94
12360;BME280;6244;51.460;7.090;2023-03-21T08:26:44;100539.06;;;9.16;78.01
12360;BME280;6244;51.460;7.090;2023-03-21T08:31:42;100540.41;;;9.24;78.00
12360;BME280;6244;51.460;7.090;2023-03-21T08:36:39;100535.25;;;9.23;78.25
12360;BME280;6244;51.460;7.090;2023-03-21T08:41:36;100538.66;;;9.25;78.08
12360;BME280;6244;51.460;7.090;2023-03-21T08:46:33;100550.81;;;9.26;78.62
12360;BME280;6244;51.460;7.090;2023-03-21T08:51:31;100548.19;;;9.26;79.36
12360;BME280;6244;51.460;7.090;2023-03-21T08:56:27;100550.88;;;9.24;79.53
12360;BME280;6244;51.460;7.090;2023-03-21T09:01:24;100560.75;;;9.19;80.56
12360;BME280;6244;51.460;7.090;2023-03-21T09:06:21;100561.78;;;9.15;81.02
12360;BME280;6244;51.460;7.090;2023-03-21T09:11:20;100558.91;;;9.21;81.27
12360;BME280;6244;51.460;7.090;2023-03-21T09:16:16;100553.16;;;9.32;81.01
12360;BME280;6244;51.460;7.090;2023-03-21T09:21:14;100547.53;;;9.39;80.08
12360;BME280;6244;51.460;7.090;2023-03-21T09:26:12;100553.69;;;9.38;80.66
12360;BME280;6244;51.460;7.090;2023-03-21T09:31:11;100554.28;;;9.26;81.62
12360;BME280;6244;51.460;7.090;2023-03-21T09:36:10;100552.59;;;9.25;82.44
12360;BME280;6244;51.460;7.090;2023-03-21T09:41:18;100552.16;;;9.16;82.62
12360;BME280;6244;51.460;7.090;2023-03-21T09:46:23;100545.97;;;9.18;83.01
12360;BME280;6244;51.460;7.090;2023-03-21T09:51:25;100548.28;;;9.24;83.84
12360;BME280;6244;51.460;7.090;2023-03-21T09:56:23;100539.84;;;9.36;83.20
12360;BME280;6244;51.460;7.090;2023-03-21T10:01:25;100551.06;;;9.38;82.97
12360;BME280;6244;51.460;7.090;2023-03-21T10:06:24;100542.72;;;9.49;82.32
12360;BME280;6244;51.460;7.090;2023-03-21T10:11:27;100539.16;;;9.50;81.16
12360;BME280;6244;51.460;7.090;2023-03-21T10:16:32;100531.72;;;9.60;79.62
12360;BME280;6244;51.460;7.090;2023-03-21T10:21:30;100527.00;;;9.66;79.54
12360;BME280;6244;51.460;7.090;2023-03-21T10:26:28;100523.53;;;9.66;79.18
12360;BME280;6244;51.460;7.090;2023-03-21T10:31:29;100527.50;;;9.75;78.10
12360;BME280;6244;51.460;7.090;2023-03-21T10:36:28;100518.16;;;9.86;76.23
12360;BME280;6244;51.460;7.090;2023-03-21T10:41:26;100520.72;;;9.88;76.20
12360;BME280;6244;51.460;7.090;2023-03-21T10:46:25;100515.22;;;9.75;76.15
12360;BME280;6244;51.460;7.090;2023-03-21T10:51:27;100502.78;;;9.80;77.25
12360;BME280;6244;51.460;7.090;2023-03-21T10:56:27;100492.41;;;9.77;78.23
12360;BME280;6244;51.460;7.090;2023-03-21T11:01:27;100481.00;;;9.78;78.18
12360;BME280;6244;51.460;7.090;2023-03-21T11:06:28;100475.09;;;9.75;78.72
12360;BME280;6244;51.460;7.090;2023-03-21T11:11:32;100470.59;;;9.77;79.06
12360;BME280;6244;51.460;7.090;2023-03-21T11:16:31;100448.59;;;9.81;79.55
12360;BME280;6244;51.460;7.090;2023-03-21T11:21:36;100445.47;;;10.07;78.77
12360;BME280;6244;51.460;7.090;2023-03-21T11:26:35;100438.53;;;10.39;75.89
12360;BME280;6244;51.460;7.090;2023-03-21T11:31:36;100439.28;;;10.41;75.73
12360;BME280;6244;51.460;7.090;2023-03-21T11:36:35;100438.22;;;10.45;74.40
12360;BME280;6244;51.460;7.090;2023-03-21T11:41:33;100433.38;;;10.53;74.08
12360;BME280;6244;51.460;7.090;2023-03-21T11:46:31;100426.28;;;10.55;72.88
12360;BME280;6244;51.460;7.090;2023-03-21T11:51:40;100428.91;;;10.71;72.92
12360;BME280;6244;51.460;7.090;2023-03-21T11:56:43;100422.03;;;11.00;71.93
12360;BME280;6244;51.460;7.090;2023-03-21T12:01:50;100399.78;;;11.52;70.20
12360;BME280;6244;51.460;7.090;2023-03-21T12:06:55;100398.53;;;11.73;68.23
12360;BME280;6244;51.460;7.090;2023-03-21T12:12:02;100410.03;;;11.56;68.44
12360;BME280;6244;51.460;7.090;2023-03-21T12:17:08;100414.56;;;11.38;68.92
12360;BME280;6244;51.460;7.090;2023-03-21T12:22:13;100395.91;;;11.29;68.86
12360;BME280;6244;51.460;7.090;2023-03-21T12:27:18;100403.03;;;11.41;68.70
12360;BME280;6244;51.460;7.090;2023-03-21T12:32:27;100391.03;;;11.37;68.91
12360;BME280;6244;51.460;7.090;2023-03-21T12:37:33;100384.00;;;11.37;69.08
12360;BME280;6244;51.460;7.090;2023-03-21T12:42:47;100389.78;;;11.28;68.86
12360;BME280;6244;51.460;7.090;2023-03-21T12:47:51;100379.97;;;11.16;67.68
12360;BME280;6244;51.460;7.090;2023-03-21T12:52:54;100396.03;;;10.96;71.13
12360;BME280;6244;51.460;7.090;2023-03-21T12:57:55;100384.72;;;10.64;73.23
12360;BME280;6244;51.460;7.090;2023-03-21T13:02:56;100381.84;;;10.52;73.78
12360;BME280;6244;51.460;7.090;2023-03-21T13:07:58;100362.72;;;10.50;73.00
12360;BME280;6244;51.460;7.090;2023-03-21T13:13:17;100356.38;;;10.70;71.62
12360;BME280;6244;51.460;7.090;2023-03-21T13:23:35;100345.22;;;10.67;71.00
12360;BME280;6244;51.460;7.090;2023-03-21T13:28:34;100333.97;;;10.79;71.09
12360;BME280;6244;51.460;7.090;2023-03-21T13:33:31;100324.28;;;10.81;70.87
12360;BME280;6244;51.460;7.090;2023-03-21T13:38:31;100306.41;;;10.72;70.53
12360;BME280;6244;51.460;7.090;2023-03-21T13:43:41;100303.88;;;10.70;71.15
12360;BME280;6244;51.460;7.090;2023-03-21T13:48:43;100307.69;;;10.80;70.40
12360;BME280;6244;51.460;7.090;2023-03-21T13:53:41;100298.31;;;10.91;69.70
12360;BME280;6244;51.460;7.090;2023-03-21T13:58:50;100296.19;;;10.97;69.17
12360;BME280;6244;51.460;7.090;2023-03-21T14:03:47;100271.91;;;10.94;69.16
12360;BME280;6244;51.460;7.090;2023-03-21T14:08:45;100277.56;;;11.16;68.82
12360;BME280;6244;51.460;7.090;2023-03-21T14:13:44;100277.28;;;11.06;68.79
12360;BME280;6244;51.460;7.090;2023-03-21T14:18:43;100266.03;;;11.04;68.41
12360;BME280;6244;51.460;7.090;2023-03-21T14:23:40;100267.06;;;11.16;68.28
12360;BME280;6244;51.460;7.090;2023-03-21T14:28:38;100268.00;;;11.15;67.97
12360;BME280;6244;51.460;7.090;2023-03-21T14:33:40;100262.84;;;11.13;67.84
12360;BME280;6244;51.460;7.090;2023-03-21T14:38:41;100257.34;;;11.32;67.62
12360;BME280;6244;51.460;7.090;2023-03-21T14:43:37;100259.69;;;11.37;67.46
12360;BME280;6244;51.460;7.090;2023-03-21T14:48:34;100276.19;;;11.53;67.15
12360;BME280;6244;51.460;7.090;2023-03-21T14:53:35;100275.06;;;11.71;65.70
12360;BME280;6244;51.460;7.090;2023-03-21T14:58:33;100267.19;;;11.57;65.30
12360;BME280;6244;51.460;7.090;2023-03-21T15:03:33;100264.56;;;11.43;65.58
12360;BME280;6244;51.460;7.090;2023-03-21T15:08:33;100254.41;;;11.51;65.83
12360;BME280;6244;51.460;7.090;2023-03-21T15:13:31;100250.50;;;11.58;65.44
12360;BME280;6244;51.460;7.090;2023-03-21T15:18:30;100246.00;;;11.46;66.13
12360;BME280;6244;51.460;7.090;2023-03-21T15:23:30;100237.34;;;11.58;65.52
12360;BME280;6244;51.460;7.090;2023-03-21T15:28:30;100228.72;;;11.85;64.85
12360;BME280;6244;51.460;7.090;2023-03-21T15:33:27;100229.31;;;12.17;63.36
12360;BME280;6244;51.460;7.090;2023-03-21T15:38:28;100223.25;;;12.29;62.17
12360;BME280;6244;51.460;7.090;2023-03-21T15:43:25;100215.22;;;12.18;62.98
12360;BME280;6244;51.460;7.090;2023-03-21T15:48:26;100213.00;;;11.97;64.00
12360;BME280;6244;51.460;7.090;2023-03-21T15:53:23;100205.41;;;11.93;63.57
12360;BME280;6244;51.460;7.090;2023-03-21T15:58:22;100209.69;;;12.08;63.58
12360;BME280;6244;51.460;7.090;2023-03-21T16:03:22;100223.69;;;12.35;62.32
12360;BME280;6244;51.460;7.090;2023-03-21T16:08:25;100207.72;;;12.51;61.60
12360;BME280;6244;51.460;7.090;2023-03-21T16:13:22;100197.84;;;12.55;61.90
12360;BME280;6244;51.460;7.090;2023-03-21T16:18:18;100218.97;;;12.41;61.77
12360;BME280;6244;51.460;7.090;2023-03-21T16:23:15;100203.28;;;12.12;62.97
12360;BME280;6244;51.460;7.090;2023-03-21T16:28:15;100220.78;;;11.99;63.59
12360;BME280;6244;51.460;7.090;2023-03-21T16:33:12;100209.31;;;12.00;64.01
12360;BME280;6244;51.460;7.090;2023-03-21T16:38:09;100201.00;;;12.20;62.82
12360;BME280;6244;51.460;7.090;2023-03-21T16:43:07;100204.16;;;11.98;63.89
12360;BME280;6244;51.460;7.090;2023-03-21T16:48:06;100194.03;;;11.78;64.89
12360;BME280;6244;51.460;7.090;2023-03-21T16:53:06;100189.09;;;11.73;65.24
12360;BME280;6244;51.460;7.090;2023-03-21T16:58:03;100199.06;;;11.68;65.67
12360;BME280;6244;51.460;7.090;2023-03-21T17:03:07;100211.34;;;11.68;65.73
12360;BME280;6244;51.460;7.090;2023-03-21T17:08:13;100224.59;;;11.66;65.66
12360;BME280;6244;51.460;7.090;2023-03-21T17:13:10;100230.00;;;11.63;65.98
12360;BME280;6244;51.460;7.090;2023-03-21T17:18:06;100229.75;;;11.68;66.26
12360;BME280;6244;51.460;7.090;2023-03-21T17:23:03;100234.44;;;11.63;66.64
12360;BME280;6244;51.460;7.090;2023-03-21T17:28:01;100240.44;;;11.65;66.59
12360;BME280;6244;51.460;7.090;2023-03-21T17:32:58;100241.97;;;11.55;66.70
12360;BME280;6244;51.460;7.090;2023-03-21T17:37:56;100246.38;;;11.54;67.17
12360;BME280;6244;51.460;7.090;2023-03-21T17:42:55;100246.28;;;11.56;67.40
12360;BME280;6244;51.460;7.090;2023-03-21T17:52:55;100222.78;;;11.53;67.07
12360;BME280;6244;51.460;7.090;2023-03-21T17:57:55;100240.94;;;11.57;67.19
12360;BME280;6244;51.460;7.090;2023-03-21T18:02:56;100216.72;;;11.38;67.61
12360;BME280;6244;51.460;7.090;2023-03-21T18:08:13;100224.13;;;11.45;67.49
12360;BME280;6244;51.460;7.090;2023-03-21T18:13:15;100248.91;;;11.56;67.34
12360;BME280;6244;51.460;7.090;2023-03-21T18:23:19;100240.34;;;11.52;67.42
12360;BME280;6244;51.460;7.090;2023-03-21T18:28:15;100234.34;;;11.50;67.54
12360;BME280;6244;51.460;7.090;2023-03-21T18:33:12;100239.31;;;11.40;67.76
12360;BME280;6244;51.460;7.090;2023-03-21T18:38:09;100243.91;;;11.37;67.53
12360;BME280;6244;51.460;7.090;2023-03-21T18:43:10;100236.31;;;11.32;67.62
12360;BME280;6244;51.460;7.090;2023-03-21T18:48:30;100238.94;;;11.32;67.85
12360;BME280;6244;51.460;7.090;2023-03-21T18:53:43;100243.91;;;11.37;67.92
12360;BME280;6244;51.460;7.090;2023-03-21T18:58:41;100244.84;;;11.36;68.28
12360;BME280;6244;51.460;7.090;2023-03-21T19:03:55;100256.41;;;11.33;68.54
12360;BME280;6244;51.460;7.090;2023-03-21T19:09:42;100238.56;;;11.10;71.18
12360;BME280;6244;51.460;7.090;2023-03-21T19:15:12;100240.84;;;10.86;73.57
12360;BME280;6244;51.460;7.090;2023-03-21T19:20:28;100230.00;;;10.62;75.08
12360;BME280;6244;51.460;7.090;2023-03-21T19:25:46;100225.88;;;10.58;75.70
12360;BME280;6244;51.460;7.090;2023-03-21T19:31:15;100226.81;;;10.57;76.27
12360;BME280;6244;51.460;7.090;2023-03-21T19:36:26;100228.94;;;10.50;76.00
12360;BME280;6244;51.460;7.090;2023-03-21T19:41:22;100219.38;;;10.49;76.21
12360;BME280;6244;51.460;7.090;2023-03-21T19:46:21;100215.47;;;10.56;75.75
12360;BME280;6244;51.460;7.090;2023-03-21T19:51:31;100202.13;;;10.45;75.95
12360;BME280;6244;51.460;7.090;2023-03-21T19:56:28;100210.31;;;10.55;75.49
12360;BME280;6244;51.460;7.090;2023-03-21T20:01:26;100214.28;;;10.76;74.11
12360;BME280;6244;51.460;7.090;2023-03-21T20:06:23;100220.78;;;10.85;73.19
12360;BME280;6244;51.460;7.090;2023-03-21T20:11:20;100218.91;;;10.87;72.38
12360;BME280;6244;51.460;7.090;2023-03-21T20:16:17;100212.72;;;10.88;72.37
12360;BME280;6244;51.460;7.090;2023-03-21T20:21:15;100208.31;;;10.88;72.15
12360;BME280;6244;51.460;7.090;2023-03-21T20:26:15;100203.16;;;10.87;71.75
12360;BME280;6244;51.460;7.090;2023-03-21T20:31:13;100209.00;;;10.92;71.71
12360;BME280;6244;51.460;7.090;2023-03-21T20:36:10;100206.91;;;10.83;71.84
12360;BME280;6244;51.460;7.090;2023-03-21T20:41:09;100200.00;;;10.66;72.18
12360;BME280;6244;51.460;7.090;2023-03-21T20:46:07;100207.31;;;10.61;72.02
12360;BME280;6244;51.460;7.090;2023-03-21T20:51:06;100195.47;;;10.54;71.69
12360;BME280;6244;51.460;7.090;2023-03-21T20:56:04;100191.16;;;10.53;71.47
12360;BME280;6244;51.460;7.090;2023-03-21T21:01:04;100196.88;;;10.45;71.34
12360;BME280;6244;51.460;7.090;2023-03-21T21:06:09;100194.88;;;10.35;71.28
12360;BME280;6244;51.460;7.090;2023-03-21T21:11:07;100195.72;;;10.35;70.75
12360;BME280;6244;51.460;7.090;2023-03-21T21:16:05;100190.38;;;10.37;70.55
12360;BME280;6244;51.460;7.090;2023-03-21T21:21:03;100190.03;;;10.43;69.59
12360;BME280;6244;51.460;7.090;2023-03-21T21:26:00;100196.22;;;10.42;69.47
12360;BME280;6244;51.460;7.090;2023-03-21T21:31:07;100183.34;;;10.37;69.09
12360;BME280;6244;51.460;7.090;2023-03-21T21:36:05;100195.91;;;10.32;69.39
12360;BME280;6244;51.460;7.090;2023-03-21T21:41:03;100184.16;;;10.23;69.83
12360;BME280;6244;51.460;7.090;2023-03-21T21:45:59;100194.09;;;10.17;69.87
12360;BME280;6244;51.460;7.090;2023-03-21T21:50:57;100186.78;;;10.08;69.92
12360;BME280;6244;51.460;7.090;2023-03-21T21:55:56;100182.94;;;10.13;69.58
12360;BME280;6244;51.460;7.090;2023-03-21T22:00:57;100171.53;;;10.14;69.45
12360;BME280;6244;51.460;7.090;2023-03-21T22:06:01;100174.31;;;10.11;69.53
12360;BME280;6244;51.460;7.090;2023-03-21T22:10:58;100176.00;;;10.12;69.54
12360;BME280;6244;51.460;7.090;2023-03-21T22:15:55;100177.38;;;10.19;69.08
12360;BME280;6244;51.460;7.090;2023-03-21T22:20:51;100171.19;;;10.36;68.12
12360;BME280;6244;51.460;7.090;2023-03-21T22:25:50;100169.31;;;10.38;68.15
12360;BME280;6244;51.460;7.090;2023-03-21T22:30:48;100170.16;;;10.39;68.28
12360;BME280;6244;51.460;7.090;2023-03-21T22:35:44;100165.13;;;10.50;67.80
12360;BME280;6244;51.460;7.090;2023-03-21T22:40:41;100167.13;;;10.61;67.33
12360;BME280;6244;51.460;7.090;2023-03-21T22:45:39;100174.72;;;10.65;67.27
12360;BME280;6244;51.460;7.090;2023-03-21T22:50:35;100164.72;;;10.72;67.21
12360;BME280;6244;51.460;7.090;2023-03-21T22:55:32;100171.19;;;10.80;67.10
12360;BME280;6244;51.460;7.090;2023-03-21T23:00:29;100166.91;;;10.79;67.23
12360;BME280;6244;51.460;7.090;2023-03-21T23:05:27;100168.28;;;10.85;67.30
12360;BME280;6244;51.460;7.090;2023-03-21T23:10:23;100165.28;;;10.77;67.71
12360;BME280;6244;51.460;7.090;2023-03-21T23:15:20;100165.75;;;10.83;67.86
12360;BME280;6244;51.460;7.090;2023-03-21T23:20:17;100167.25;;;10.87;67.68
12360;BME280;6244;51.460;7.090;2023-03-21T23:25:15;100156.75;;;10.87;67.77
12360;BME280;6244;51.460;7.090;2023-03-21T23:30:14;100156.31;;;10.81;67.84
12360;BME280;6244;51.460;7.090;2023-03-21T23:35:11;100149.72;;;10.74;68.24
12360;BME280;6244;51.460;7.090;2023-03-21T23:40:09;100151.03;;;10.67;68.55
12360;BME280;6244;51.460;7.090;2023-03-21T23:45:09;100155.81;;;10.74;68.23
12360;BME280;6244;51.460;7.090;2023-03-21T23:50:06;100144.47;;;10.74;68.40
12360;BME280;6244;51.460;7.090;2023-03-21T23:55:04;100142.50;;;10.77;68.09
